sensor_id;sensor_type;location;lat;lon;timestamp;pressure;altitude;pressure_sealevel;temperature;humidity
48216;BME280;34005;48.844;10.098;2022-11-20T00:00:26;96110.03;;;7.88;74.77
48216;BME280;34005;48.844;10.098;2022-11-20T00:02:53;96116.66;;;7.91;75.19
48216;BME280;34005;48.844;10.098;2022-11-20T00:05:21;96116.66;;;7.91;74.92
48216;BME280;34005;48.844;10.098;2022-11-20T00:07:48;96119.09;;;7.92;75.49
48216;BME280;34005;48.844;10.098;2022-11-20T00:10:16;96112.75;;;7.95;75.73
48216;BME280;34005;48.844;10.098;2022-11-20T00:12:43;96107.53;;;7.95;75.16
48216;BME280;34005;48.844;10.098;2022-11-20T00:15:12;96113.91;;;7.92;74.63
48216;BME280;34005;48.844;10.098;2022-11-20T00:17:40;96106.28;;;7.91;74.45
48216;BME280;34005;48.844;10.098;2022-11-20T00:20:08;96117.84;;;7.88;74.46
48216;BME280;34005;48.844;10.098;2022-11-20T00:22:36;96120.25;;;7.90;74.94
48216;BME280;34005;48.844;10.098;2022-11-20T00:25:04;96125.47;;;7.90;74.68
48216;BME280;34005;48.844;10.098;2022-11-20T00:27:32;96118.63;;;7.89;75.32
48216;BME280;34005;48.844;10.098;2022-11-20T00:29:59;96123.81;;;7.89;75.63
48216;BME280;34005;48.844;10.098;2022-11-20T00:32:29;96128.69;;;7.92;75.76
48216;BME280;34005;48.844;10.098;2022-11-20T00:34:56;96121.88;;;7.91;75.18
48216;BME280;34005;48.844;10.098;2022-11-20T00:37:24;96122.84;;;7.90;75.45
48216;BME280;34005;48.844;10.098;2022-11-20T00:39:52;96118.63;;;7.89;74.89
48216;BME280;34005;48.844;10.098;2022-11-20T00:42:19;96118.63;;;7.89;74.36
48216;BME280;34005;48.844;10.098;2022-11-20T00:44:47;96116.84;;;7.89;75.03
48216;BME280;34005;48.844;10.098;2022-11-20T00:47:14;96117.03;;;7.88;74.26
48216;BME280;34005;48.844;10.098;2022-11-20T00:49:43;96119.63;;;7.88;74.68
48216;BME280;34005;48.844;10.098;2022-11-20T00:52:11;96130.03;;;7.88;74.58
48216;BME280;34005;48.844;10.098;2022-11-20T00:54:38;96124.19;;;7.86;74.28
48216;BME280;34005;48.844;10.098;2022-11-20T00:57:06;96132.94;;;7.84;74.14
48216;BME280;34005;48.844;10.098;2022-11-20T00:59:33;96132.94;;;7.84;75.15
48216;BME280;34005;48.844;10.098;2022-11-20T01:02:01;96132.94;;;7.84;75.35
48216;BME280;34005;48.844;10.098;2022-11-20T01:04:28;96129.72;;;7.82;74.55
48216;BME280;34005;48.844;10.098;2022-11-20T01:06:57;96123.72;;;7.82;75.52
48216;BME280;34005;48.844;10.098;2022-11-20T01:09:25;96127.31;;;7.81;74.89
48216;BME280;34005;48.844;10.098;2022-11-20T01:11:52;96133.31;;;7.81;75.08
48216;BME280;34005;48.844;10.098;2022-11-20T01:14:20;96129.72;;;7.82;75.16
48216;BME280;34005;48.844;10.098;2022-11-20T01:16:49;96136.53;;;7.83;74.46
48216;BME280;34005;48.844;10.098;2022-11-20T01:19:19;96138.13;;;7.84;74.54
48216;BME280;34005;48.844;10.098;2022-11-20T01:21:49;96145.94;;;7.84;74.66
48216;BME280;34005;48.844;10.098;2022-11-20T01:24:19;96145.28;;;7.82;73.66
48216;BME280;34005;48.844;10.098;2022-11-20T01:26:49;96143.69;;;7.81;74.90
48216;BME280;34005;48.844;10.098;2022-11-20T01:29:19;96137.34;;;7.84;75.64
48216;BME280;34005;48.844;10.098;2022-11-20T01:31:47;96144.34;;;7.83;74.55
48216;BME280;34005;48.844;10.098;2022-11-20T01:34:17;96149.53;;;7.83;73.91
48216;BME280;34005;48.844;10.098;2022-11-20T01:36:46;96143.34;;;7.84;73.65
48216;BME280;34005;48.844;10.098;2022-11-20T01:39:16;96150.97;;;7.86;74.04
48216;BME280;34005;48.844;10.098;2022-11-20T01:41:48;96147.56;;;7.86;74.31
48216;BME280;34005;48.844;10.098;2022-11-20T01:44:57;96145.75;;;7.86;74.16
48216;BME280;34005;48.844;10.098;2022-11-20T01:47:31;96139.78;;;7.86;73.61
48216;BME280;34005;48.844;10.098;2022-11-20T01:50:05;96144.97;;;7.86;74.12
48216;BME280;34005;48.844;10.098;2022-11-20T01:52:36;96142.38;;;7.86;73.27
48216;BME280;34005;48.844;10.098;2022-11-20T01:55:08;96142.53;;;7.84;74.24
48216;BME280;34005;48.844;10.098;2022-11-20T01:57:38;96142.69;;;7.82;73.30
48216;BME280;34005;48.844;10.098;2022-11-20T02:00:08;96138.50;;;7.81;73.58
48216;BME280;34005;48.844;10.098;2022-11-20T02:02:38;96144.66;;;7.80;73.45
48216;BME280;34005;48.844;10.098;2022-11-20T02:05:14;96137.88;;;7.79;72.41
48216;BME280;34005;48.844;10.098;2022-11-20T02:07:45;96135.63;;;7.76;72.55
48216;BME280;34005;48.844;10.098;2022-11-20T02:10:14;96143.75;;;7.73;72.06
48216;BME280;34005;48.844;10.098;2022-11-20T02:12:43;96142.31;;;7.71;71.98
48216;BME280;34005;48.844;10.098;2022-11-20T02:15:28;96133.75;;;7.70;72.33
48216;BME280;34005;48.844;10.098;2022-11-20T02:17:56;96143.47;;;7.68;71.97
48216;BME280;34005;48.844;10.098;2022-11-20T02:20:24;96143.47;;;7.68;73.36
48216;BME280;34005;48.844;10.098;2022-11-20T02:22:55;96139.09;;;7.69;73.63
48216;BME280;34005;48.844;10.098;2022-11-20T02:25:26;96141.84;;;7.67;73.12
48216;BME280;34005;48.844;10.098;2022-11-20T02:27:55;96143.66;;;7.67;73.46
48216;BME280;34005;48.844;10.098;2022-11-20T02:30:23;96145.44;;;7.66;72.40
48216;BME280;34005;48.844;10.098;2022-11-20T02:32:51;96142.84;;;7.66;72.46
48216;BME280;34005;48.844;10.098;2022-11-20T02:35:44;96140.25;;;7.66;71.79
48216;BME280;34005;48.844;10.098;2022-11-20T02:38:13;96155.03;;;7.66;73.05
48216;BME280;34005;48.844;10.098;2022-11-20T02:40:42;96145.44;;;7.66;73.48
48216;BME280;34005;48.844;10.098;2022-11-20T02:43:10;96140.88;;;7.68;73.13
48216;BME280;34005;48.844;10.098;2022-11-20T02:45:38;96140.72;;;7.70;73.22
48216;BME280;34005;48.844;10.098;2022-11-20T02:48:06;96142.31;;;7.71;72.74
48216;BME280;34005;48.844;10.098;2022-11-20T02:50:37;96145.91;;;7.70;72.17
48216;BME280;34005;48.844;10.098;2022-11-20T02:53:05;96140.53;;;7.71;73.31
48216;BME280;34005;48.844;10.098;2022-11-20T02:55:33;96139.72;;;7.71;72.56
48216;BME280;34005;48.844;10.098;2022-11-20T02:58:01;96133.53;;;7.72;72.43
48216;BME280;34005;48.844;10.098;2022-11-20T03:00:29;96134.53;;;7.71;73.40
48216;BME280;34005;48.844;10.098;2022-11-20T03:02:58;96136.97;;;7.72;72.63
48216;BME280;34005;48.844;10.098;2022-11-20T03:05:25;96137.94;;;7.71;72.17
48216;BME280;34005;48.844;10.098;2022-11-20T03:07:53;96138.72;;;7.72;73.50
48216;BME280;34005;48.844;10.098;2022-11-20T03:10:20;96141.16;;;7.73;72.90
48216;BME280;34005;48.844;10.098;2022-11-20T03:12:53;96142.16;;;7.72;71.50
48216;BME280;34005;48.844;10.098;2022-11-20T03:15:22;96125.75;;;7.72;71.15
48216;BME280;34005;48.844;10.098;2022-11-20T03:17:53;96132.75;;;7.71;72.72
48216;BME280;34005;48.844;10.098;2022-11-20T03:20:21;96134.38;;;7.72;72.46
48216;BME280;34005;48.844;10.098;2022-11-20T03:22:48;96123.97;;;7.72;72.92
48216;BME280;34005;48.844;10.098;2022-11-20T03:25:16;96127.53;;;7.71;72.44
48216;BME280;34005;48.844;10.098;2022-11-20T03:27:43;96131.78;;;7.72;72.37
48216;BME280;34005;48.844;10.098;2022-11-20T03:30:11;96136.97;;;7.72;72.64
48216;BME280;34005;48.844;10.098;2022-11-20T03:32:40;96131.78;;;7.72;72.19
48216;BME280;34005;48.844;10.098;2022-11-20T03:35:08;96134.38;;;7.72;71.93
48216;BME280;34005;48.844;10.098;2022-11-20T03:37:36;96137.94;;;7.71;72.05
48216;BME280;34005;48.844;10.098;2022-11-20T03:40:04;96137.94;;;7.71;71.68
48216;BME280;34005;48.844;10.098;2022-11-20T03:42:32;96141.31;;;7.72;71.42
48216;BME280;34005;48.844;10.098;2022-11-20T03:45:12;96145.72;;;7.71;71.36
48216;BME280;34005;48.844;10.098;2022-11-20T03:47:42;96145.09;;;7.69;72.08
48216;BME280;34005;48.844;10.098;2022-11-20T03:50:10;96136.66;;;7.67;70.83
48216;BME280;34005;48.844;10.098;2022-11-20T03:52:39;96135.22;;;7.64;71.13
48216;BME280;34005;48.844;10.098;2022-11-20T03:55:07;96141.41;;;7.63;71.18
48216;BME280;34005;48.844;10.098;2022-11-20T03:57:35;96137.38;;;7.61;71.03
48216;BME280;34005;48.844;10.098;2022-11-20T04:00:04;96139.97;;;7.61;71.65
48216;BME280;34005;48.844;10.098;2022-11-20T04:02:31;96139.63;;;7.64;72.07
48216;BME280;34005;48.844;10.098;2022-11-20T04:05:00;96139.78;;;7.62;71.71
48216;BME280;34005;48.844;10.098;2022-11-20T04:07:28;96139.00;;;7.62;71.61
48216;BME280;34005;48.844;10.098;2022-11-20T04:09:55;96131.03;;;7.63;72.42
48216;BME280;34005;48.844;10.098;2022-11-20T04:12:23;96127.44;;;7.64;72.05
48216;BME280;34005;48.844;10.098;2022-11-20T04:14:50;96123.41;;;7.62;71.78
48216;BME280;34005;48.844;10.098;2022-11-20T04:17:18;96128.59;;;7.62;71.75
48216;BME280;34005;48.844;10.098;2022-11-20T04:19:46;96121.81;;;7.61;71.31
48216;BME280;34005;48.844;10.098;2022-11-20T04:22:15;96122.59;;;7.61;71.50
48216;BME280;34005;48.844;10.098;2022-11-20T04:24:42;96121.19;;;7.59;71.53
48216;BME280;34005;48.844;10.098;2022-11-20T04:27:10;96125.72;;;7.57;71.43
48216;BME280;34005;48.844;10.098;2022-11-20T04:29:37;96127.69;;;7.55;70.45
48216;BME280;34005;48.844;10.098;2022-11-20T04:32:05;96121.50;;;7.56;71.06
48216;BME280;34005;48.844;10.098;2022-11-20T04:34:33;96118.09;;;7.55;71.04
48216;BME280;34005;48.844;10.098;2022-11-20T04:37:00;96121.69;;;7.54;71.66
48216;BME280;34005;48.844;10.098;2022-11-20T04:39:29;96116.50;;;7.54;72.20
48216;BME280;34005;48.844;10.098;2022-11-20T04:41:57;96123.66;;;7.52;71.35
48216;BME280;34005;48.844;10.098;2022-11-20T04:44:39;96112.66;;;7.50;70.53
48216;BME280;34005;48.844;10.098;2022-11-20T04:47:06;96117.00;;;7.50;72.04
48216;BME280;34005;48.844;10.098;2022-11-20T04:49:34;96116.03;;;7.51;71.41
48216;BME280;34005;48.844;10.098;2022-11-20T04:52:02;96117.66;;;7.52;72.19
48216;BME280;34005;48.844;10.098;2022-11-20T04:54:31;96123.66;;;7.52;70.63
48216;BME280;34005;48.844;10.098;2022-11-20T04:56:58;96121.22;;;7.51;70.26
48216;BME280;34005;48.844;10.098;2022-11-20T04:59:26;96118.81;;;7.49;70.88
48216;BME280;34005;48.844;10.098;2022-11-20T05:01:54;96122.19;;;7.50;70.61
48216;BME280;34005;48.844;10.098;2022-11-20T05:04:22;96113.28;;;7.52;72.33
48216;BME280;34005;48.844;10.098;2022-11-20T05:06:49;96117.31;;;7.55;72.46
48216;BME280;34005;48.844;10.098;2022-11-20T05:09:17;96103.34;;;7.56;71.67
48216;BME280;34005;48.844;10.098;2022-11-20T05:11:46;96107.56;;;7.57;71.22
48216;BME280;34005;48.844;10.098;2022-11-20T05:14:17;96112.56;;;7.58;72.21
48216;BME280;34005;48.844;10.098;2022-11-20T05:16:44;96109.78;;;7.60;71.57
48216;BME280;34005;48.844;10.098;2022-11-20T05:19:12;96107.84;;;7.62;72.35
48216;BME280;34005;48.844;10.098;2022-11-20T05:21:40;96102.66;;;7.62;71.43
48216;BME280;34005;48.844;10.098;2022-11-20T05:24:07;96109.44;;;7.63;71.30
48216;BME280;34005;48.844;10.098;2022-11-20T05:26:35;96108.47;;;7.64;71.40
48216;BME280;34005;48.844;10.098;2022-11-20T05:29:04;96107.03;;;7.61;70.75
48216;BME280;34005;48.844;10.098;2022-11-20T05:31:31;96104.25;;;7.63;71.91
48216;BME280;34005;48.844;10.098;2022-11-20T05:33:59;96114.63;;;7.63;71.31
48216;BME280;34005;48.844;10.098;2022-11-20T05:36:27;96116.44;;;7.62;70.16
48216;BME280;34005;48.844;10.098;2022-11-20T05:38:54;96110.44;;;7.62;70.64
48216;BME280;34005;48.844;10.098;2022-11-20T05:41:27;96116.25;;;7.64;70.90
48216;BME280;34005;48.844;10.098;2022-11-20T05:43:55;96114.47;;;7.64;71.01
48216;BME280;34005;48.844;10.098;2022-11-20T05:46:25;96114.28;;;7.66;71.61
48216;BME280;34005;48.844;10.098;2022-11-20T05:48:55;96116.72;;;7.68;71.36
48216;BME280;34005;48.844;10.098;2022-11-20T05:51:24;96115.72;;;7.69;71.59
48216;BME280;34005;48.844;10.098;2022-11-20T05:53:52;96113.94;;;7.69;71.12
48216;BME280;34005;48.844;10.098;2022-11-20T05:56:20;96123.34;;;7.70;71.04
48216;BME280;34005;48.844;10.098;2022-11-20T05:58:48;96113.94;;;7.69;70.27
48216;BME280;34005;48.844;10.098;2022-11-20T06:01:18;96121.91;;;7.68;70.61
48216;BME280;34005;48.844;10.098;2022-11-20T06:03:47;96124.84;;;7.64;69.30
48216;BME280;34005;48.844;10.098;2022-11-20T06:06:18;96124.22;;;7.62;70.37
48216;BME280;34005;48.844;10.098;2022-11-20T06:08:46;96125.00;;;7.63;70.51
48216;BME280;34005;48.844;10.098;2022-11-20T06:11:14;96120.44;;;7.65;70.59
48216;BME280;34005;48.844;10.098;2022-11-20T06:13:43;96121.28;;;7.66;69.68
48216;BME280;34005;48.844;10.098;2022-11-20T06:16:12;96127.44;;;7.64;69.33
48216;BME280;34005;48.844;10.098;2022-11-20T06:18:40;96123.06;;;7.65;69.81
48216;BME280;34005;48.844;10.098;2022-11-20T06:21:11;96121.28;;;7.66;69.71
48216;BME280;34005;48.844;10.098;2022-11-20T06:23:40;96118.84;;;7.64;69.16
48216;BME280;34005;48.844;10.098;2022-11-20T06:26:09;96115.91;;;7.67;69.43
48216;BME280;34005;48.844;10.098;2022-11-20T06:28:38;96125.47;;;7.67;69.32
48216;BME280;34005;48.844;10.098;2022-11-20T06:31:06;96124.69;;;7.66;69.37
48216;BME280;34005;48.844;10.098;2022-11-20T06:33:34;96115.91;;;7.67;70.75
48216;BME280;34005;48.844;10.098;2022-11-20T06:36:03;96119.50;;;7.66;70.45
48216;BME280;34005;48.844;10.098;2022-11-20T06:38:37;96123.69;;;7.67;70.85
48216;BME280;34005;48.844;10.098;2022-11-20T06:41:06;96127.28;;;7.66;70.64
48216;BME280;34005;48.844;10.098;2022-11-20T06:43:34;96121.91;;;7.68;70.44
48216;BME280;34005;48.844;10.098;2022-11-20T06:46:02;96127.09;;;7.68;70.79
48216;BME280;34005;48.844;10.098;2022-11-20T06:48:30;96130.50;;;7.68;71.31
48216;BME280;34005;48.844;10.098;2022-11-20T06:50:57;96131.31;;;7.69;70.58
48216;BME280;34005;48.844;10.098;2022-11-20T06:53:25;96135.53;;;7.70;71.03
48216;BME280;34005;48.844;10.098;2022-11-20T06:55:56;96134.69;;;7.69;71.24
48216;BME280;34005;48.844;10.098;2022-11-20T06:58:26;96132.94;;;7.70;71.37
48216;BME280;34005;48.844;10.098;2022-11-20T07:00:54;96134.38;;;7.72;71.04
48216;BME280;34005;48.844;10.098;2022-11-20T07:03:24;96136.78;;;7.74;71.12
48216;BME280;34005;48.844;10.098;2022-11-20T07:05:54;96136.78;;;7.74;71.38
48216;BME280;34005;48.844;10.098;2022-11-20T07:08:22;96140.00;;;7.76;70.65
48216;BME280;34005;48.844;10.098;2022-11-20T07:10:49;96129.63;;;7.76;70.66
48216;BME280;34005;48.844;10.098;2022-11-20T07:13:18;96133.69;;;7.78;71.33
48216;BME280;34005;48.844;10.098;2022-11-20T07:15:46;96129.28;;;7.79;70.03
48216;BME280;34005;48.844;10.098;2022-11-20T07:18:14;96136.28;;;7.78;69.53
48216;BME280;34005;48.844;10.098;2022-11-20T07:20:41;96141.28;;;7.80;70.49
48216;BME280;34005;48.844;10.098;2022-11-20T07:23:09;96133.69;;;7.78;69.33
48216;BME280;34005;48.844;10.098;2022-11-20T07:25:36;96146.03;;;7.76;70.04
48216;BME280;34005;48.844;10.098;2022-11-20T07:28:04;96141.63;;;7.77;70.69
48216;BME280;34005;48.844;10.098;2022-11-20T07:30:33;96141.63;;;7.77;70.13
48216;BME280;34005;48.844;10.098;2022-11-20T07:33:03;96145.19;;;7.76;69.28
48216;BME280;34005;48.844;10.098;2022-11-20T07:35:30;96147.78;;;7.76;69.41
48216;BME280;34005;48.844;10.098;2022-11-20T07:37:58;96149.59;;;7.75;69.34
48216;BME280;34005;48.844;10.098;2022-11-20T07:40:26;96145.56;;;7.73;68.27
48216;BME280;34005;48.844;10.098;2022-11-20T07:42:54;96146.72;;;7.70;69.84
48216;BME280;34005;48.844;10.098;2022-11-20T07:45:23;96148.50;;;7.70;69.40
48216;BME280;34005;48.844;10.098;2022-11-20T07:47:52;96141.53;;;7.70;69.66
48216;BME280;34005;48.844;10.098;2022-11-20T07:50:20;96144.13;;;7.70;68.87
48216;BME280;34005;48.844;10.098;2022-11-20T08:17:15;96155.47;;;7.69;70.18
48216;BME280;34005;48.844;10.098;2022-11-20T09:43:02;96175.56;;;7.75;70.65
48216;BME280;34005;48.844;10.098;2022-11-20T09:45:50;96171.97;;;7.76;71.24
48216;BME280;34005;48.844;10.098;2022-11-20T09:48:32;96177.50;;;7.73;69.79
48216;BME280;34005;48.844;10.098;2022-11-20T09:51:09;96175.28;;;7.70;69.94
48216;BME280;34005;48.844;10.098;2022-11-20T09:53:48;96180.47;;;7.70;72.24
48216;BME280;34005;48.844;10.098;2022-11-20T09:56:20;96184.84;;;7.70;70.70
48216;BME280;34005;48.844;10.098;2022-11-20T09:58:51;96183.38;;;7.67;70.38
48216;BME280;34005;48.844;10.098;2022-11-20T10:01:21;96188.78;;;7.66;71.24
48216;BME280;34005;48.844;10.098;2022-11-20T10:03:54;96186.97;;;7.66;71.53
48216;BME280;34005;48.844;10.098;2022-11-20T10:06:30;96182.75;;;7.65;70.95
48216;BME280;34005;48.844;10.098;2022-11-20T10:09:06;96189.56;;;7.66;71.51
48216;BME280;34005;48.844;10.098;2022-11-20T10:11:48;96188.94;;;7.64;71.49
48216;BME280;34005;48.844;10.098;2022-11-20T10:14:26;96185.72;;;7.62;71.38
48216;BME280;34005;48.844;10.098;2022-11-20T10:17:02;96185.72;;;7.62;72.14
48216;BME280;34005;48.844;10.098;2022-11-20T10:19:47;96190.91;;;7.62;71.47
48216;BME280;34005;48.844;10.098;2022-11-20T10:22:30;96185.72;;;7.62;71.18
48216;BME280;34005;48.844;10.098;2022-11-20T10:25:05;96179.88;;;7.60;71.39
48216;BME280;34005;48.844;10.098;2022-11-20T10:27:57;96182.84;;;7.57;71.01
48216;BME280;34005;48.844;10.098;2022-11-20T10:30:34;96184.44;;;7.58;72.24
48216;BME280;34005;48.844;10.098;2022-11-20T10:33:06;96174.69;;;7.60;72.10
48216;BME280;34005;48.844;10.098;2022-11-20T10:35:42;96173.72;;;7.61;71.93
48216;BME280;34005;48.844;10.098;2022-11-20T10:38:15;96176.94;;;7.63;72.23
48216;BME280;34005;48.844;10.098;2022-11-20T10:40:46;96183.75;;;7.64;71.49
48216;BME280;34005;48.844;10.098;2022-11-20T10:43:18;96180.16;;;7.65;71.38
48216;BME280;34005;48.844;10.098;2022-11-20T10:45:52;96185.53;;;7.63;71.29
48216;BME280;34005;48.844;10.098;2022-11-20T10:48:23;96182.94;;;7.63;71.25
48216;BME280;34005;48.844;10.098;2022-11-20T10:51:10;96189.31;;;7.61;71.81
48216;BME280;34005;48.844;10.098;2022-11-20T10:53:47;96180.88;;;7.59;71.63
48216;BME280;34005;48.844;10.098;2022-11-20T10:56:20;96182.84;;;7.57;71.57
48216;BME280;34005;48.844;10.098;2022-11-20T10:59:00;96184.78;;;7.55;71.42
48216;BME280;34005;48.844;10.098;2022-11-20T11:01:31;96176.38;;;7.53;71.76
48216;BME280;34005;48.844;10.098;2022-11-20T11:03:59;96176.38;;;7.53;71.92
48216;BME280;34005;48.844;10.098;2022-11-20T11:06:33;96169.75;;;7.50;72.79
48216;BME280;34005;48.844;10.098;2022-11-20T11:09:09;96169.75;;;7.50;73.00
48216;BME280;34005;48.844;10.098;2022-11-20T11:11:38;96171.19;;;7.53;73.25
48216;BME280;34005;48.844;10.098;2022-11-20T11:14:06;96166.78;;;7.53;73.16
48216;BME280;34005;48.844;10.098;2022-11-20T11:16:35;96171.81;;;7.55;73.52
48216;BME280;34005;48.844;10.098;2022-11-20T11:19:04;96165.47;;;7.57;73.45
48216;BME280;34005;48.844;10.098;2022-11-20T11:21:32;96162.50;;;7.60;72.70
48216;BME280;34005;48.844;10.098;2022-11-20T11:24:02;96165.31;;;7.59;72.50
48216;BME280;34005;48.844;10.098;2022-11-20T11:26:52;96163.66;;;7.58;72.94
48216;BME280;34005;48.844;10.098;2022-11-20T11:29:20;96162.50;;;7.60;72.79
48216;BME280;34005;48.844;10.098;2022-11-20T11:31:49;96161.34;;;7.63;72.77
48216;BME280;34005;48.844;10.098;2022-11-20T11:34:17;96167.81;;;7.67;73.38
48216;BME280;34005;48.844;10.098;2022-11-20T11:36:52;96174.63;;;7.68;73.69
48216;BME280;34005;48.844;10.098;2022-11-20T11:39:23;96173.00;;;7.67;73.65
48216;BME280;34005;48.844;10.098;2022-11-20T11:41:52;96176.59;;;7.66;73.03
48216;BME280;34005;48.844;10.098;2022-11-20T11:44:21;96169.78;;;7.65;73.07
48216;BME280;34005;48.844;10.098;2022-11-20T11:47:19;96162.50;;;7.60;72.86
48216;BME280;34005;48.844;10.098;2022-11-20T11:49:48;96165.47;;;7.57;72.46
48216;BME280;34005;48.844;10.098;2022-11-20T11:52:18;96158.03;;;7.54;73.04
48216;BME280;34005;48.844;10.098;2022-11-20T11:54:52;96153.97;;;7.52;73.36
48216;BME280;34005;48.844;10.098;2022-11-20T11:57:26;96148.78;;;7.52;73.82
48216;BME280;34005;48.844;10.098;2022-11-20T12:00:01;96155.59;;;7.53;73.97
48216;BME280;34005;48.844;10.098;2022-11-20T12:02:37;96145.38;;;7.51;73.87
48216;BME280;34005;48.844;10.098;2022-11-20T12:05:14;96155.59;;;7.53;73.84
48216;BME280;34005;48.844;10.098;2022-11-20T12:07:46;96153.81;;;7.53;73.64
48216;BME280;34005;48.844;10.098;2022-11-20T12:10:19;96147.97;;;7.51;73.87
48216;BME280;34005;48.844;10.098;2022-11-20T12:12:50;96148.78;;;7.52;73.90
48216;BME280;34005;48.844;10.098;2022-11-20T12:15:26;96145.22;;;7.53;74.07
48216;BME280;34005;48.844;10.098;2022-11-20T12:17:57;96144.88;;;7.56;74.59
48216;BME280;34005;48.844;10.098;2022-11-20T12:20:29;96133.31;;;7.58;74.21
48216;BME280;34005;48.844;10.098;2022-11-20T12:23:04;96136.38;;;7.62;74.61
48216;BME280;34005;48.844;10.098;2022-11-20T12:25:36;96137.03;;;7.64;74.39
48216;BME280;34005;48.844;10.098;2022-11-20T12:28:17;96137.28;;;7.69;75.29
48216;BME280;34005;48.844;10.098;2022-11-20T12:31:00;96133.38;;;7.73;74.39
48216;BME280;34005;48.844;10.098;2022-11-20T12:33:56;96140.84;;;7.76;74.79
48216;BME280;34005;48.844;10.098;2022-11-20T12:36:36;96129.63;;;7.76;73.82
48216;BME280;34005;48.844;10.098;2022-11-20T12:39:16;96133.22;;;7.75;74.56
48216;BME280;34005;48.844;10.098;2022-11-20T12:41:54;96137.59;;;7.74;74.10
48216;BME280;34005;48.844;10.098;2022-11-20T12:45:02;96135.97;;;7.73;74.02
48216;BME280;34005;48.844;10.098;2022-11-20T12:47:48;96128.00;;;7.75;74.71
48216;BME280;34005;48.844;10.098;2022-11-20T12:50:29;96129.44;;;7.77;74.72
48216;BME280;34005;48.844;10.098;2022-11-20T12:53:04;96121.75;;;7.84;74.96
48216;BME280;34005;48.844;10.098;2022-11-20T12:55:38;96129.50;;;7.92;74.50
48216;BME280;34005;48.844;10.098;2022-11-20T12:58:15;96121.44;;;8.02;74.25
48216;BME280;34005;48.844;10.098;2022-11-20T13:00:54;96117.16;;;8.09;73.83
48216;BME280;34005;48.844;10.098;2022-11-20T13:03:38;96117.25;;;8.16;73.72
48216;BME280;34005;48.844;10.098;2022-11-20T13:06:15;96108.28;;;8.18;73.40
48216;BME280;34005;48.844;10.098;2022-11-20T13:08:49;96116.50;;;8.22;72.79
48216;BME280;34005;48.844;10.098;2022-11-20T13:11:24;96115.63;;;8.30;72.90
48216;BME280;34005;48.844;10.098;2022-11-20T13:14:07;96111.69;;;8.34;72.24
48216;BME280;34005;48.844;10.098;2022-11-20T13:16:45;96105.50;;;8.35;71.85
48216;BME280;34005;48.844;10.098;2022-11-20T13:19:16;96118.50;;;8.35;71.66
48216;BME280;34005;48.844;10.098;2022-11-20T13:21:46;96110.53;;;8.36;71.81
48216;BME280;34005;48.844;10.098;2022-11-20T13:24:24;96105.34;;;8.36;72.63
48216;BME280;34005;48.844;10.098;2022-11-20T13:27:18;96102.56;;;8.38;72.92
48216;BME280;34005;48.844;10.098;2022-11-20T13:29:59;96100.59;;;8.40;71.69
48216;BME280;34005;48.844;10.098;2022-11-20T13:32:28;96096.06;;;8.42;72.07
48216;BME280;34005;48.844;10.098;2022-11-20T13:34:59;96094.06;;;8.44;72.04
48216;BME280;34005;48.844;10.098;2022-11-20T13:37:32;96084.28;;;8.46;72.32
48216;BME280;34005;48.844;10.098;2022-11-20T13:40:22;96093.72;;;8.47;72.24
48216;BME280;34005;48.844;10.098;2022-11-20T13:43:02;96094.69;;;8.46;72.68
48216;BME280;34005;48.844;10.098;2022-11-20T13:45:31;96091.47;;;8.44;71.21
48216;BME280;34005;48.844;10.098;2022-11-20T13:48:02;96087.41;;;8.41;72.00
48216;BME280;34005;48.844;10.098;2022-11-20T13:50:43;96095.06;;;8.43;72.02
48216;BME280;34005;48.844;10.098;2022-11-20T13:53:44;96095.84;;;8.43;73.09
48216;BME280;34005;48.844;10.098;2022-11-20T13:56:24;96091.47;;;8.44;72.20
48216;BME280;34005;48.844;10.098;2022-11-20T13:59:01;96087.25;;;8.43;71.90
48216;BME280;34005;48.844;10.098;2022-11-20T14:01:31;96088.88;;;8.44;72.01
48216;BME280;34005;48.844;10.098;2022-11-20T14:04:05;96084.66;;;8.43;70.84
48216;BME280;34005;48.844;10.098;2022-11-20T14:06:41;96093.63;;;8.40;72.22
48216;BME280;34005;48.844;10.098;2022-11-20T14:09:24;96085.00;;;8.40;71.64
48216;BME280;34005;48.844;10.098;2022-11-20T14:11:51;96083.38;;;8.39;71.46
48216;BME280;34005;48.844;10.098;2022-11-20T14:14:21;96085.66;;;8.42;71.40
48216;BME280;34005;48.844;10.098;2022-11-20T14:16:50;96077.66;;;8.43;71.41
48216;BME280;34005;48.844;10.098;2022-11-20T14:19:28;96084.28;;;8.46;71.61
48216;BME280;34005;48.844;10.098;2022-11-20T14:22:18;96077.09;;;8.48;71.95
48216;BME280;34005;48.844;10.098;2022-11-20T14:24:48;96070.31;;;8.47;71.29
48216;BME280;34005;48.844;10.098;2022-11-20T14:27:18;96079.06;;;8.46;70.80
48216;BME280;34005;48.844;10.098;2022-11-20T14:29:50;96077.47;;;8.45;70.65
48216;BME280;34005;48.844;10.098;2022-11-20T14:32:19;96074.25;;;8.43;70.49
48216;BME280;34005;48.844;10.098;2022-11-20T14:34:50;96069.41;;;8.40;69.93
48216;BME280;34005;48.844;10.098;2022-11-20T14:37:20;96073.97;;;8.38;70.45
48216;BME280;34005;48.844;10.098;2022-11-20T14:39:51;96080.34;;;8.35;69.66
48216;BME280;34005;48.844;10.098;2022-11-20T14:42:21;96072.88;;;8.32;70.18
48216;BME280;34005;48.844;10.098;2022-11-20T14:44:51;96061.69;;;8.32;70.60
48216;BME280;34005;48.844;10.098;2022-11-20T14:47:21;96067.06;;;8.30;69.81
48216;BME280;34005;48.844;10.098;2022-11-20T14:49:51;96064.03;;;8.27;70.06
48216;BME280;34005;48.844;10.098;2022-11-20T14:52:21;96062.41;;;8.25;70.90
48216;BME280;34005;48.844;10.098;2022-11-20T14:54:51;96066.81;;;8.25;71.05
48216;BME280;34005;48.844;10.098;2022-11-20T14:57:25;96062.56;;;8.24;70.73
48216;BME280;34005;48.844;10.098;2022-11-20T15:00:06;96059.34;;;8.22;69.94
48216;BME280;34005;48.844;10.098;2022-11-20T15:02:34;96062.16;;;8.20;69.58
48216;BME280;34005;48.844;10.098;2022-11-20T15:05:02;96060.72;;;8.18;70.01
48216;BME280;34005;48.844;10.098;2022-11-20T15:07:32;96061.53;;;8.18;70.85
48216;BME280;34005;48.844;10.098;2022-11-20T15:10:04;96055.31;;;8.19;71.38